createdAt,value
2023-04-22T00:03:15.455Z,45.60
2023-04-22T00:08:19.096Z,45.60
2023-04-22T00:13:22.446Z,45.80
2023-04-22T00:18:27.385Z,46.10
2023-04-22T00:23:30.967Z,46.60
2023-04-22T00:28:37.023Z,46.70
2023-04-22T00:33:41.894Z,46.80
2023-04-22T00:38:50.313Z,46.90
2023-04-22T00:43:54.531Z,47.80
2023-04-22T00:49:00.047Z,48.00
2023-04-22T00:54:04.731Z,48.40
2023-04-22T00:59:09.878Z,49.40
2023-04-22T01:04:15.568Z,49.40
2023-04-22T01:09:20.200Z,49.80
2023-04-22T01:14:23.986Z,50.00
2023-04-22T01:19:29.454Z,50.30
2023-04-22T01:24:34.819Z,50.30
2023-04-22T01:29:38.986Z,50.80
2023-04-22T01:34:42.597Z,50.90
2023-04-22T01:39:48.632Z,52.10
2023-04-22T01:44:52.003Z,51.80
2023-04-22T01:49:55.414Z,51.60
2023-04-22T01:55:01.262Z,52.00
2023-04-22T02:00:06.028Z,52.40
2023-04-22T02:05:10.436Z,52.70
2023-04-22T02:10:15.566Z,52.40
2023-04-22T02:15:19.079Z,52.50
2023-04-22T02:20:22.776Z,52.90
2023-04-22T02:25:28.041Z,52.80
2023-04-22T02:30:31.461Z,53.30
2023-04-22T02:35:35.172Z,53.00
2023-04-22T02:40:39.929Z,53.00
2023-04-22T02:45:43.672Z,53.10
2023-04-22T02:50:47.324Z,53.50
2023-04-22T02:55:52.439Z,54.10
2023-04-22T03:00:57.218Z,54.50
2023-04-22T03:06:00.777Z,54.70
2023-04-22T03:11:06.264Z,54.50
2023-04-22T03:16:09.783Z,54.50
2023-04-22T03:21:13.241Z,54.40
2023-04-22T03:26:17.992Z,54.40
2023-04-22T03:31:21.635Z,54.50
2023-04-22T03:36:25.128Z,54.30
2023-04-22T03:41:30.019Z,54.50
2023-04-22T03:46:33.697Z,55.00
2023-04-22T03:51:38.004Z,55.30
2023-04-22T03:56:42.803Z,55.80
2023-04-22T04:01:48.331Z,55.90
2023-04-22T04:06:51.869Z,56.00
2023-04-22T04:11:56.745Z,56.80
2023-04-22T04:17:00.118Z,55.70
2023-04-22T04:22:03.600Z,55.60
2023-04-22T04:27:08.830Z,55.60
2023-04-22T04:32:12.438Z,55.70
2023-04-22T04:37:16.851Z,56.20
2023-04-22T04:42:24.534Z,56.00
2023-04-22T04:47:28.488Z,56.00
2023-04-22T04:52:32.764Z,56.20
2023-04-22T04:57:38.561Z,55.80
2023-04-22T05:02:42.825Z,54.70
2023-04-22T05:07:46.729Z,54.60
2023-04-22T05:12:51.511Z,54.80
2023-04-22T05:17:55.444Z,54.90
2023-04-22T05:22:58.803Z,54.40
2023-04-22T05:28:03.999Z,53.30
2023-04-22T05:33:08.675Z,52.90
2023-04-22T05:38:12.336Z,52.80
2023-04-22T05:43:17.314Z,53.00
2023-04-22T05:48:20.687Z,53.10
2023-04-22T05:53:24.138Z,53.20
2023-04-22T05:58:28.863Z,53.50
2023-04-22T06:03:32.912Z,53.50
2023-04-22T06:08:36.565Z,54.40
2023-04-22T06:13:41.357Z,55.60
2023-04-22T06:18:44.825Z,55.30
2023-04-22T06:23:48.480Z,54.80
2023-04-22T06:28:53.306Z,54.90
2023-04-22T06:33:56.703Z,54.50
2023-04-22T06:39:00.193Z,54.50
2023-04-22T06:44:05.029Z,54.10
2023-04-22T06:49:08.490Z,54.00
2023-04-22T06:54:11.901Z,54.80
2023-04-22T06:59:16.639Z,53.50
2023-04-22T07:04:20.516Z,53.20
2023-04-22T07:09:23.924Z,53.20
2023-04-22T07:14:28.700Z,53.40
2023-04-22T07:19:33.331Z,52.90
2023-04-22T07:24:39.295Z,52.60
2023-04-22T07:29:44.015Z,52.20
2023-04-22T07:34:47.483Z,52.00
2023-04-22T07:39:50.870Z,52.10
2023-04-22T07:44:55.685Z,51.70
2023-04-22T07:49:59.291Z,51.20
2023-04-22T07:55:02.746Z,51.60
2023-04-22T17:19:56.914Z,20.40
2023-04-22T17:25:00.545Z,21.60
2023-04-22T17:30:04.391Z,22.10
2023-04-22T17:35:10.877Z,23.50
2023-04-22T17:40:14.299Z,23.50
2023-04-22T17:45:17.661Z,24.20
2023-04-22T17:50:23.332Z,24.70
2023-04-22T17:55:26.959Z,25.30
2023-04-22T18:00:31.310Z,26.90
2023-04-22T18:05:42.886Z,26.70
2023-04-22T18:10:46.418Z,27.20
2023-04-22T18:15:49.850Z,28.10
2023-04-22T18:20:55.668Z,28.00
2023-04-22T18:25:59.393Z,28.60
2023-04-22T18:31:03.065Z,29.20
2023-04-22T18:36:09.095Z,29.40
2023-04-22T18:41:15.112Z,29.90
2023-04-22T18:46:20.751Z,30.20
2023-04-22T18:51:27.707Z,30.50
2023-04-22T18:56:33.349Z,31.20
2023-04-22T19:01:38.972Z,31.20
2023-04-22T19:06:46.930Z,31.50
2023-04-22T19:11:52.864Z,32.40
2023-04-22T19:16:58.573Z,32.20
2023-04-22T19:22:06.355Z,32.40
2023-04-22T19:27:13.152Z,32.70
2023-04-22T19:32:19.348Z,33.00
2023-04-22T19:37:26.580Z,33.30
2023-04-22T19:42:31.160Z,33.50
2023-04-22T19:47:35.624Z,34.60
2023-04-22T19:52:42.770Z,35.00
2023-04-22T19:57:46.840Z,35.00
2023-04-22T20:02:51.465Z,35.10
2023-04-22T20:07:59.067Z,35.60
2023-04-22T20:13:04.511Z,35.80
2023-04-22T20:18:08.858Z,36.30
2023-04-22T20:23:15.444Z,36.50
2023-04-22T20:28:19.415Z,36.80
2023-04-22T20:33:23.323Z,37.10
2023-04-22T20:38:31.439Z,37.20
2023-04-22T20:43:35.501Z,37.60
2023-04-22T20:48:38.942Z,38.10
2023-04-22T20:53:44.156Z,38.50
2023-04-22T20:58:48.076Z,38.80
2023-04-22T21:03:53.223Z,38.90
2023-04-22T21:08:58.748Z,39.20
2023-04-22T21:14:02.658Z,39.30
2023-04-22T21:19:08.332Z,39.30
2023-04-22T21:24:15.110Z,39.70
2023-04-22T21:29:18.992Z,40.40
2023-04-22T21:34:22.624Z,41.30
2023-04-22T21:39:27.708Z,40.90
2023-04-22T21:44:31.129Z,41.30
2023-04-22T21:49:34.577Z,41.40
2023-04-22T21:54:39.591Z,41.70
2023-04-22T21:59:43.437Z,41.50
2023-04-22T22:04:47.168Z,41.90
2023-04-22T22:09:52.896Z,42.00
2023-04-22T22:14:56.317Z,42.20
2023-04-22T22:19:59.811Z,42.10
2023-04-22T22:25:04.748Z,42.50
2023-04-22T22:30:09.542Z,42.80
2023-04-22T22:35:13.600Z,43.30
2023-04-22T22:40:18.368Z,43.30
2023-04-22T22:45:22.049Z,43.50
2023-04-22T22:50:26.244Z,43.40
2023-04-22T22:55:31.276Z,43.60
2023-04-22T23:00:34.983Z,43.70
2023-04-22T23:05:38.763Z,44.00
2023-04-22T23:10:43.520Z,44.50
2023-04-22T23:15:47.018Z,44.50
2023-04-22T23:20:51.105Z,44.70
2023-04-22T23:25:56.935Z,44.90
2023-04-22T23:31:01.801Z,45.10
2023-04-22T23:36:07.994Z,45.50
2023-04-22T23:41:13.384Z,45.80
2023-04-22T23:46:18.554Z,46.00
2023-04-22T23:51:22.563Z,46.40
2023-04-22T23:56:28.067Z,46.50
